sensor_id;sensor_type;location;lat;lon;timestamp;temperature;humidity
63875;DHT22;51595;24.180;-110.296;2023-07-31T00:01:36;36.40;94.00
63875;DHT22;51595;24.180;-110.296;2023-07-31T00:04:02;36.70;90.00
63875;DHT22;51595;24.180;-110.296;2023-07-31T00:06:30;36.60;90.40
63875;DHT22;51595;24.180;-110.296;2023-07-31T00:08:57;36.20;85.80
63875;DHT22;51595;24.180;-110.296;2023-07-31T00:11:23;36.40;90.10
63875;DHT22;51595;24.180;-110.296;2023-07-31T00:13:49;36.30;91.70
63875;DHT22;51595;24.180;-110.296;2023-07-31T00:16:16;36.40;90.70
63875;DHT22;51595;24.180;-110.296;2023-07-31T00:18:42;36.50;91.10
63875;DHT22;51595;24.180;-110.296;2023-07-31T00:21:09;37.00;91.60
63875;DHT22;51595;24.180;-110.296;2023-07-31T00:23:36;37.50;89.70
63875;DHT22;51595;24.180;-110.296;2023-07-31T00:26:03;37.30;91.80
63875;DHT22;51595;24.180;-110.296;2023-07-31T00:28:29;37.30;91.00
63875;DHT22;51595;24.180;-110.296;2023-07-31T00:30:56;37.10;92.30
63875;DHT22;51595;24.180;-110.296;2023-07-31T00:33:22;37.40;93.20
63875;DHT22;51595;24.180;-110.296;2023-07-31T00:35:49;37.60;91.60
63875;DHT22;51595;24.180;-110.296;2023-07-31T00:38:16;37.90;91.10
63875;DHT22;51595;24.180;-110.296;2023-07-31T00:40:45;37.90;95.10
63875;DHT22;51595;24.180;-110.296;2023-07-31T00:43:12;37.80;85.30
63875;DHT22;51595;24.180;-110.296;2023-07-31T00:45:38;37.50;88.50
63875;DHT22;51595;24.180;-110.296;2023-07-31T00:48:05;37.30;90.40
63875;DHT22;51595;24.180;-110.296;2023-07-31T00:50:34;37.40;93.90
63875;DHT22;51595;24.180;-110.296;2023-07-31T00:53:01;37.60;90.30
63875;DHT22;51595;24.180;-110.296;2023-07-31T00:55:28;37.60;89.70
63875;DHT22;51595;24.180;-110.296;2023-07-31T00:57:54;37.50;88.50
63875;DHT22;51595;24.180;-110.296;2023-07-31T01:00:22;37.50;89.40
63875;DHT22;51595;24.180;-110.296;2023-07-31T01:02:51;37.70;85.50
63875;DHT22;51595;24.180;-110.296;2023-07-31T01:05:30;37.80;90.20
63875;DHT22;51595;24.180;-110.296;2023-07-31T01:08:19;37.90;84.70
63875;DHT22;51595;24.180;-110.296;2023-07-31T01:10:56;37.80;82.30
63875;DHT22;51595;24.180;-110.296;2023-07-31T01:13:23;37.90;86.50
63875;DHT22;51595;24.180;-110.296;2023-07-31T01:15:49;37.70;78.00
63875;DHT22;51595;24.180;-110.296;2023-07-31T01:18:16;37.50;80.60
63875;DHT22;51595;24.180;-110.296;2023-07-31T01:20:48;37.60;80.20
63875;DHT22;51595;24.180;-110.296;2023-07-31T01:26:12;37.30;81.90
63875;DHT22;51595;24.180;-110.296;2023-07-31T01:29:08;37.20;85.90
63875;DHT22;51595;24.180;-110.296;2023-07-31T01:31:38;36.90;90.80
63875;DHT22;51595;24.180;-110.296;2023-07-31T01:34:06;36.70;91.80
63875;DHT22;51595;24.180;-110.296;2023-07-31T01:36:35;36.50;93.90
63875;DHT22;51595;24.180;-110.296;2023-07-31T01:39:02;36.30;93.50
63875;DHT22;51595;24.180;-110.296;2023-07-31T01:41:30;36.00;97.80
63875;DHT22;51595;24.180;-110.296;2023-07-31T01:43:56;35.30;99.80
63875;DHT22;51595;24.180;-110.296;2023-07-31T01:46:23;35.00;98.90
63875;DHT22;51595;24.180;-110.296;2023-07-31T01:48:49;34.80;99.90
63875;DHT22;51595;24.180;-110.296;2023-07-31T01:51:16;34.50;99.80
63875;DHT22;51595;24.180;-110.296;2023-07-31T01:53:42;34.30;99.90
63875;DHT22;51595;24.180;-110.296;2023-07-31T01:56:09;34.00;99.90
63875;DHT22;51595;24.180;-110.296;2023-07-31T01:58:36;33.60;99.90
63875;DHT22;51595;24.180;-110.296;2023-07-31T02:01:06;33.50;99.90
63875;DHT22;51595;24.180;-110.296;2023-07-31T02:03:32;33.40;99.90
63875;DHT22;51595;24.180;-110.296;2023-07-31T02:05:59;33.40;99.90
63875;DHT22;51595;24.180;-110.296;2023-07-31T02:08:25;33.50;99.90
63875;DHT22;51595;24.180;-110.296;2023-07-31T02:10:52;33.40;99.90
63875;DHT22;51595;24.180;-110.296;2023-07-31T02:13:18;33.30;99.90
63875;DHT22;51595;24.180;-110.296;2023-07-31T02:15:45;33.30;99.90
63875;DHT22;51595;24.180;-110.296;2023-07-31T02:18:13;33.40;99.90
63875;DHT22;51595;24.180;-110.296;2023-07-31T02:20:39;33.40;99.90
63875;DHT22;51595;24.180;-110.296;2023-07-31T02:23:06;33.30;99.90
63875;DHT22;51595;24.180;-110.296;2023-07-31T02:25:32;33.40;99.90
63875;DHT22;51595;24.180;-110.296;2023-07-31T02:27:59;33.20;99.90
63875;DHT22;51595;24.180;-110.296;2023-07-31T02:30:25;33.30;99.90
63875;DHT22;51595;24.180;-110.296;2023-07-31T02:32:52;33.20;99.90
63875;DHT22;51595;24.180;-110.296;2023-07-31T02:35:19;33.10;99.90
63875;DHT22;51595;24.180;-110.296;2023-07-31T02:37:46;32.90;99.90
63875;DHT22;51595;24.180;-110.296;2023-07-31T02:40:13;32.80;99.90
63875;DHT22;51595;24.180;-110.296;2023-07-31T02:42:40;32.70;99.90
63875;DHT22;51595;24.180;-110.296;2023-07-31T02:45:07;32.60;99.90
63875;DHT22;51595;24.180;-110.296;2023-07-31T02:47:34;32.60;99.90
63875;DHT22;51595;24.180;-110.296;2023-07-31T02:50:04;32.60;99.90
63875;DHT22;51595;24.180;-110.296;2023-07-31T02:52:30;32.40;99.90
63875;DHT22;51595;24.180;-110.296;2023-07-31T02:54:57;32.30;99.90
63875;DHT22;51595;24.180;-110.296;2023-07-31T02:57:26;32.10;99.90
63875;DHT22;51595;24.180;-110.296;2023-07-31T02:59:53;32.00;99.90
63875;DHT22;51595;24.180;-110.296;2023-07-31T03:02:20;31.90;99.90
63875;DHT22;51595;24.180;-110.296;2023-07-31T03:04:46;31.90;99.90
63875;DHT22;51595;24.180;-110.296;2023-07-31T03:07:13;31.80;99.90
63875;DHT22;51595;24.180;-110.296;2023-07-31T03:09:41;31.70;99.90
63875;DHT22;51595;24.180;-110.296;2023-07-31T03:12:07;31.50;99.90
63875;DHT22;51595;24.180;-110.296;2023-07-31T03:14:34;31.50;99.90
63875;DHT22;51595;24.180;-110.296;2023-07-31T03:17:02;31.50;99.90
63875;DHT22;51595;24.180;-110.296;2023-07-31T03:19:31;31.50;99.90
63875;DHT22;51595;24.180;-110.296;2023-07-31T03:21:58;31.50;99.90
63875;DHT22;51595;24.180;-110.296;2023-07-31T03:24:26;31.40;99.90
63875;DHT22;51595;24.180;-110.296;2023-07-31T03:26:54;31.20;99.90
63875;DHT22;51595;24.180;-110.296;2023-07-31T03:29:20;31.10;99.90
63875;DHT22;51595;24.180;-110.296;2023-07-31T03:31:47;31.10;99.90
63875;DHT22;51595;24.180;-110.296;2023-07-31T03:34:13;31.10;99.90
63875;DHT22;51595;24.180;-110.296;2023-07-31T03:36:40;31.00;99.90
63875;DHT22;51595;24.180;-110.296;2023-07-31T03:39:08;30.90;99.90
63875;DHT22;51595;24.180;-110.296;2023-07-31T03:41:34;30.60;99.90
63875;DHT22;51595;24.180;-110.296;2023-07-31T03:44:01;30.70;99.90
63875;DHT22;51595;24.180;-110.296;2023-07-31T03:46:27;30.60;99.90
63875;DHT22;51595;24.180;-110.296;2023-07-31T03:48:54;30.60;99.90
63875;DHT22;51595;24.180;-110.296;2023-07-31T03:51:23;30.50;99.90
63875;DHT22;51595;24.180;-110.296;2023-07-31T03:53:49;30.50;99.90
63875;DHT22;51595;24.180;-110.296;2023-07-31T03:56:16;30.40;99.90
63875;DHT22;51595;24.180;-110.296;2023-07-31T03:58:43;30.30;99.90
63875;DHT22;51595;24.180;-110.296;2023-07-31T04:01:11;30.30;99.90
63875;DHT22;51595;24.180;-110.296;2023-07-31T04:03:38;30.30;99.90
63875;DHT22;51595;24.180;-110.296;2023-07-31T04:06:04;30.30;99.90
63875;DHT22;51595;24.180;-110.296;2023-07-31T04:08:32;30.20;99.90
63875;DHT22;51595;24.180;-110.296;2023-07-31T04:11:02;30.10;99.90
63875;DHT22;51595;24.180;-110.296;2023-07-31T04:13:30;30.10;99.90
63875;DHT22;51595;24.180;-110.296;2023-07-31T04:15:57;30.10;99.90
63875;DHT22;51595;24.180;-110.296;2023-07-31T04:18:25;30.10;99.90
63875;DHT22;51595;24.180;-110.296;2023-07-31T04:20:52;30.00;99.90
63875;DHT22;51595;24.180;-110.296;2023-07-31T04:23:20;30.00;99.90
63875;DHT22;51595;24.180;-110.296;2023-07-31T04:25:47;29.90;99.90
63875;DHT22;51595;24.180;-110.296;2023-07-31T04:28:15;30.10;99.90
63875;DHT22;51595;24.180;-110.296;2023-07-31T04:30:41;30.10;99.90
63875;DHT22;51595;24.180;-110.296;2023-07-31T04:33:08;29.90;99.90
63875;DHT22;51595;24.180;-110.296;2023-07-31T04:35:35;29.80;99.90
63875;DHT22;51595;24.180;-110.296;2023-07-31T04:38:01;29.70;99.90
63875;DHT22;51595;24.180;-110.296;2023-07-31T04:40:28;29.70;99.90
63875;DHT22;51595;24.180;-110.296;2023-07-31T04:42:54;29.80;99.90
63875;DHT22;51595;24.180;-110.296;2023-07-31T04:45:22;29.80;99.90
63875;DHT22;51595;24.180;-110.296;2023-07-31T04:47:49;29.70;99.90
63875;DHT22;51595;24.180;-110.296;2023-07-31T04:50:16;29.70;99.90
63875;DHT22;51595;24.180;-110.296;2023-07-31T04:52:42;29.60;99.90
63875;DHT22;51595;24.180;-110.296;2023-07-31T04:55:09;29.60;99.90
63875;DHT22;51595;24.180;-110.296;2023-07-31T04:57:35;29.70;99.90
63875;DHT22;51595;24.180;-110.296;2023-07-31T05:00:02;29.70;99.90
63875;DHT22;51595;24.180;-110.296;2023-07-31T05:02:28;29.70;99.90
63875;DHT22;51595;24.180;-110.296;2023-07-31T05:04:55;29.70;99.90
63875;DHT22;51595;24.180;-110.296;2023-07-31T05:07:23;29.70;99.90
63875;DHT22;51595;24.180;-110.296;2023-07-31T05:09:49;29.80;99.90
63875;DHT22;51595;24.180;-110.296;2023-07-31T05:12:15;29.80;99.90
63875;DHT22;51595;24.180;-110.296;2023-07-31T05:14:42;29.70;99.90
63875;DHT22;51595;24.180;-110.296;2023-07-31T05:17:09;29.60;99.90
63875;DHT22;51595;24.180;-110.296;2023-07-31T05:19:35;29.60;99.90
63875;DHT22;51595;24.180;-110.296;2023-07-31T05:22:01;29.70;99.90
63875;DHT22;51595;24.180;-110.296;2023-07-31T05:24:28;29.70;99.90
63875;DHT22;51595;24.180;-110.296;2023-07-31T05:26:54;29.70;99.90
63875;DHT22;51595;24.180;-110.296;2023-07-31T05:29:21;29.60;99.90
63875;DHT22;51595;24.180;-110.296;2023-07-31T05:31:48;29.60;99.90
63875;DHT22;51595;24.180;-110.296;2023-07-31T05:34:15;29.60;99.90
63875;DHT22;51595;24.180;-110.296;2023-07-31T05:36:43;29.60;99.90
63875;DHT22;51595;24.180;-110.296;2023-07-31T05:39:09;29.60;99.90
63875;DHT22;51595;24.180;-110.296;2023-07-31T05:41:36;29.60;99.90
63875;DHT22;51595;24.180;-110.296;2023-07-31T05:44:02;29.60;99.90
63875;DHT22;51595;24.180;-110.296;2023-07-31T05:46:29;29.70;99.90
63875;DHT22;51595;24.180;-110.296;2023-07-31T05:48:58;29.70;99.90
63875;DHT22;51595;24.180;-110.296;2023-07-31T05:51:27;29.70;99.90
63875;DHT22;51595;24.180;-110.296;2023-07-31T05:53:53;29.70;99.90
63875;DHT22;51595;24.180;-110.296;2023-07-31T05:56:21;29.70;99.90
63875;DHT22;51595;24.180;-110.296;2023-07-31T05:58:47;29.60;99.90
63875;DHT22;51595;24.180;-110.296;2023-07-31T06:01:16;29.60;99.90
63875;DHT22;51595;24.180;-110.296;2023-07-31T06:03:43;29.60;99.90
63875;DHT22;51595;24.180;-110.296;2023-07-31T06:06:10;29.60;99.90
63875;DHT22;51595;24.180;-110.296;2023-07-31T06:08:36;29.60;99.90
63875;DHT22;51595;24.180;-110.296;2023-07-31T06:11:03;29.60;99.90
63875;DHT22;51595;24.180;-110.296;2023-07-31T06:13:30;29.60;99.90
63875;DHT22;51595;24.180;-110.296;2023-07-31T06:15:58;29.60;99.90
63875;DHT22;51595;24.180;-110.296;2023-07-31T06:18:25;29.60;99.90
63875;DHT22;51595;24.180;-110.296;2023-07-31T06:20:51;29.40;99.90
63875;DHT22;51595;24.180;-110.296;2023-07-31T06:23:20;29.40;99.90
63875;DHT22;51595;24.180;-110.296;2023-07-31T06:25:46;29.40;99.90
63875;DHT22;51595;24.180;-110.296;2023-07-31T06:28:13;29.40;99.90
63875;DHT22;51595;24.180;-110.296;2023-07-31T06:30:40;29.40;99.90
63875;DHT22;51595;24.180;-110.296;2023-07-31T06:33:06;29.40;99.90
63875;DHT22;51595;24.180;-110.296;2023-07-31T06:35:33;29.40;99.90
63875;DHT22;51595;24.180;-110.296;2023-07-31T06:38:04;29.30;99.90
63875;DHT22;51595;24.180;-110.296;2023-07-31T06:40:30;29.20;99.90
63875;DHT22;51595;24.180;-110.296;2023-07-31T06:42:58;29.30;99.90
63875;DHT22;51595;24.180;-110.296;2023-07-31T06:45:25;29.20;99.90
63875;DHT22;51595;24.180;-110.296;2023-07-31T06:47:53;29.20;99.90
63875;DHT22;51595;24.180;-110.296;2023-07-31T06:50:19;29.30;99.90
63875;DHT22;51595;24.180;-110.296;2023-07-31T06:52:45;29.30;99.90
63875;DHT22;51595;24.180;-110.296;2023-07-31T06:55:19;29.30;99.90
63875;DHT22;51595;24.180;-110.296;2023-07-31T06:57:50;29.20;99.90
63875;DHT22;51595;24.180;-110.296;2023-07-31T07:00:17;29.30;99.90
63875;DHT22;51595;24.180;-110.296;2023-07-31T07:02:44;29.20;99.90
63875;DHT22;51595;24.180;-110.296;2023-07-31T07:05:16;29.10;99.90
63875;DHT22;51595;24.180;-110.296;2023-07-31T07:07:48;29.00;99.90
63875;DHT22;51595;24.180;-110.296;2023-07-31T07:10:18;29.00;99.90
63875;DHT22;51595;24.180;-110.296;2023-07-31T07:12:44;29.00;99.90
63875;DHT22;51595;24.180;-110.296;2023-07-31T07:15:11;29.00;99.90
63875;DHT22;51595;24.180;-110.296;2023-07-31T07:17:37;29.10;99.90
63875;DHT22;51595;24.180;-110.296;2023-07-31T07:20:06;29.10;99.90
63875;DHT22;51595;24.180;-110.296;2023-07-31T07:22:33;29.00;99.90
63875;DHT22;51595;24.180;-110.296;2023-07-31T07:25:01;29.00;99.90
63875;DHT22;51595;24.180;-110.296;2023-07-31T07:27:28;29.00;99.90
63875;DHT22;51595;24.180;-110.296;2023-07-31T07:29:54;29.00;99.90
63875;DHT22;51595;24.180;-110.296;2023-07-31T07:32:21;28.90;99.90
63875;DHT22;51595;24.180;-110.296;2023-07-31T07:34:48;28.90;99.90
63875;DHT22;51595;24.180;-110.296;2023-07-31T07:37:15;28.90;99.90
63875;DHT22;51595;24.180;-110.296;2023-07-31T07:39:42;28.80;99.90
63875;DHT22;51595;24.180;-110.296;2023-07-31T07:42:08;28.90;99.90
63875;DHT22;51595;24.180;-110.296;2023-07-31T07:44:36;28.80;99.90
63875;DHT22;51595;24.180;-110.296;2023-07-31T07:47:03;28.80;99.90
63875;DHT22;51595;24.180;-110.296;2023-07-31T07:49:32;28.80;99.90
63875;DHT22;51595;24.180;-110.296;2023-07-31T07:52:01;28.80;99.90
63875;DHT22;51595;24.180;-110.296;2023-07-31T07:54:29;28.90;99.90
63875;DHT22;51595;24.180;-110.296;2023-07-31T07:56:57;28.90;99.90
63875;DHT22;51595;24.180;-110.296;2023-07-31T07:59:23;28.90;99.90
63875;DHT22;51595;24.180;-110.296;2023-07-31T08:01:50;28.90;99.90
63875;DHT22;51595;24.180;-110.296;2023-07-31T08:04:16;28.90;99.90
63875;DHT22;51595;24.180;-110.296;2023-07-31T08:06:46;28.90;99.90
63875;DHT22;51595;24.180;-110.296;2023-07-31T08:09:12;28.90;99.90
63875;DHT22;51595;24.180;-110.296;2023-07-31T08:11:39;28.80;99.90
63875;DHT22;51595;24.180;-110.296;2023-07-31T08:14:05;28.90;99.90
63875;DHT22;51595;24.180;-110.296;2023-07-31T08:16:31;28.90;99.90
63875;DHT22;51595;24.180;-110.296;2023-07-31T08:18:58;28.90;99.90
63875;DHT22;51595;24.180;-110.296;2023-07-31T08:21:24;29.00;99.90
63875;DHT22;51595;24.180;-110.296;2023-07-31T08:23:51;29.00;99.90
63875;DHT22;51595;24.180;-110.296;2023-07-31T08:26:18;29.00;99.90
63875;DHT22;51595;24.180;-110.296;2023-07-31T08:28:45;28.90;99.90
63875;DHT22;51595;24.180;-110.296;2023-07-31T08:31:11;28.90;99.90
63875;DHT22;51595;24.180;-110.296;2023-07-31T08:33:38;28.90;99.90
63875;DHT22;51595;24.180;-110.296;2023-07-31T08:36:06;29.00;99.90
63875;DHT22;51595;24.180;-110.296;2023-07-31T08:38:32;29.00;99.90
63875;DHT22;51595;24.180;-110.296;2023-07-31T08:40:59;29.00;99.90
63875;DHT22;51595;24.180;-110.296;2023-07-31T08:43:26;29.00;99.90
63875;DHT22;51595;24.180;-110.296;2023-07-31T08:45:54;29.10;99.90
63875;DHT22;51595;24.180;-110.296;2023-07-31T08:48:24;28.90;99.90
63875;DHT22;51595;24.180;-110.296;2023-07-31T08:50:53;28.90;99.90
63875;DHT22;51595;24.180;-110.296;2023-07-31T08:53:20;28.90;99.90
63875;DHT22;51595;24.180;-110.296;2023-07-31T08:55:47;28.90;99.90
63875;DHT22;51595;24.180;-110.296;2023-07-31T08:58:15;28.90;99.90
63875;DHT22;51595;24.180;-110.296;2023-07-31T09:00:43;28.90;99.90
63875;DHT22;51595;24.180;-110.296;2023-07-31T09:03:17;28.90;99.90
63875;DHT22;51595;24.180;-110.296;2023-07-31T09:05:46;28.90;99.90
63875;DHT22;51595;24.180;-110.296;2023-07-31T09:08:17;28.80;99.90
63875;DHT22;51595;24.180;-110.296;2023-07-31T09:10:45;28.60;99.90
63875;DHT22;51595;24.180;-110.296;2023-07-31T09:13:14;28.70;99.90
63875;DHT22;51595;24.180;-110.296;2023-07-31T09:15:43;28.90;99.90
63875;DHT22;51595;24.180;-110.296;2023-07-31T09:18:10;28.80;99.90
63875;DHT22;51595;24.180;-110.296;2023-07-31T09:20:37;28.90;99.90
63875;DHT22;51595;24.180;-110.296;2023-07-31T09:23:10;28.80;99.90
63875;DHT22;51595;24.180;-110.296;2023-07-31T09:25:38;28.90;99.90
63875;DHT22;51595;24.180;-110.296;2023-07-31T09:28:07;28.80;99.90
63875;DHT22;51595;24.180;-110.296;2023-07-31T09:30:48;28.70;99.90
63875;DHT22;51595;24.180;-110.296;2023-07-31T09:33:19;28.70;99.90
63875;DHT22;51595;24.180;-110.296;2023-07-31T09:35:47;28.60;99.90
63875;DHT22;51595;24.180;-110.296;2023-07-31T09:38:16;28.70;99.90
63875;DHT22;51595;24.180;-110.296;2023-07-31T09:40:47;28.80;99.90
63875;DHT22;51595;24.180;-110.296;2023-07-31T09:43:18;28.70;99.90
63875;DHT22;51595;24.180;-110.296;2023-07-31T09:45:45;28.80;99.90
63875;DHT22;51595;24.180;-110.296;2023-07-31T09:48:16;28.70;99.90
63875;DHT22;51595;24.180;-110.296;2023-07-31T09:50:46;28.60;99.90
63875;DHT22;51595;24.180;-110.296;2023-07-31T09:53:13;28.80;99.90
63875;DHT22;51595;24.180;-110.296;2023-07-31T09:55:41;28.80;99.90
63875;DHT22;51595;24.180;-110.296;2023-07-31T09:58:12;28.80;99.90
63875;DHT22;51595;24.180;-110.296;2023-07-31T10:00:39;28.70;99.90
63875;DHT22;51595;24.180;-110.296;2023-07-31T10:03:10;28.80;99.90
63875;DHT22;51595;24.180;-110.296;2023-07-31T10:05:46;28.70;99.90
63875;DHT22;51595;24.180;-110.296;2023-07-31T10:08:17;28.80;99.90
63875;DHT22;51595;24.180;-110.296;2023-07-31T10:10:45;28.70;99.90
63875;DHT22;51595;24.180;-110.296;2023-07-31T10:13:12;28.70;99.90
63875;DHT22;51595;24.180;-110.296;2023-07-31T10:15:40;28.70;99.90
63875;DHT22;51595;24.180;-110.296;2023-07-31T10:18:08;28.70;99.90
63875;DHT22;51595;24.180;-110.296;2023-07-31T10:20:36;28.70;99.90
63875;DHT22;51595;24.180;-110.296;2023-07-31T10:23:04;28.70;99.90
63875;DHT22;51595;24.180;-110.296;2023-07-31T10:25:33;28.60;99.90
63875;DHT22;51595;24.180;-110.296;2023-07-31T10:28:00;28.60;99.90
63875;DHT22;51595;24.180;-110.296;2023-07-31T10:30:29;28.50;99.90
63875;DHT22;51595;24.180;-110.296;2023-07-31T10:32:56;28.50;99.90
63875;DHT22;51595;24.180;-110.296;2023-07-31T10:35:23;28.40;99.90
63875;DHT22;51595;24.180;-110.296;2023-07-31T10:37:53;28.40;99.90
63875;DHT22;51595;24.180;-110.296;2023-07-31T10:40:27;28.20;99.90
63875;DHT22;51595;24.180;-110.296;2023-07-31T10:42:55;28.10;99.90
63875;DHT22;51595;24.180;-110.296;2023-07-31T10:45:38;28.00;99.90
63875;DHT22;51595;24.180;-110.296;2023-07-31T10:48:17;28.00;99.90
63875;DHT22;51595;24.180;-110.296;2023-07-31T10:53:30;28.00;99.90
63875;DHT22;51595;24.180;-110.296;2023-07-31T10:56:09;28.00;99.90
63875;DHT22;51595;24.180;-110.296;2023-07-31T10:58:44;28.00;99.90
63875;DHT22;51595;24.180;-110.296;2023-07-31T11:01:12;28.00;99.90
63875;DHT22;51595;24.180;-110.296;2023-07-31T11:03:42;28.10;99.90
63875;DHT22;51595;24.180;-110.296;2023-07-31T11:06:09;28.10;99.90
63875;DHT22;51595;24.180;-110.296;2023-07-31T11:08:43;28.10;99.90
63875;DHT22;51595;24.180;-110.296;2023-07-31T11:11:12;28.00;99.90
63875;DHT22;51595;24.180;-110.296;2023-07-31T11:13:46;27.90;99.90
63875;DHT22;51595;24.180;-110.296;2023-07-31T11:16:18;27.90;99.90
63875;DHT22;51595;24.180;-110.296;2023-07-31T11:18:46;27.90;99.90
63875;DHT22;51595;24.180;-110.296;2023-07-31T11:21:24;27.90;99.90
63875;DHT22;51595;24.180;-110.296;2023-07-31T11:23:57;27.90;99.90
63875;DHT22;51595;24.180;-110.296;2023-07-31T11:26:25;27.90;99.90
63875;DHT22;51595;24.180;-110.296;2023-07-31T11:28:53;27.90;99.90
63875;DHT22;51595;24.180;-110.296;2023-07-31T11:31:20;28.00;99.90
63875;DHT22;51595;24.180;-110.296;2023-07-31T11:33:46;28.00;99.90
63875;DHT22;51595;24.180;-110.296;2023-07-31T11:36:20;27.90;99.90
63875;DHT22;51595;24.180;-110.296;2023-07-31T11:38:47;28.00;99.90
63875;DHT22;51595;24.180;-110.296;2023-07-31T11:41:16;28.00;99.90
63875;DHT22;51595;24.180;-110.296;2023-07-31T11:43:42;28.00;99.90
63875;DHT22;51595;24.180;-110.296;2023-07-31T11:46:09;28.00;99.90
63875;DHT22;51595;24.180;-110.296;2023-07-31T11:48:37;28.10;99.90
63875;DHT22;51595;24.180;-110.296;2023-07-31T11:51:08;28.10;99.90
63875;DHT22;51595;24.180;-110.296;2023-07-31T11:53:44;28.20;99.90
63875;DHT22;51595;24.180;-110.296;2023-07-31T11:56:13;28.20;99.90
63875;DHT22;51595;24.180;-110.296;2023-07-31T11:58:40;28.10;99.90
63875;DHT22;51595;24.180;-110.296;2023-07-31T12:01:08;28.10;99.90
63875;DHT22;51595;24.180;-110.296;2023-07-31T12:03:35;28.10;99.90
63875;DHT22;51595;24.180;-110.296;2023-07-31T12:06:03;28.20;99.90
63875;DHT22;51595;24.180;-110.296;2023-07-31T12:08:33;28.20;99.90
63875;DHT22;51595;24.180;-110.296;2023-07-31T12:11:07;28.20;99.90
63875;DHT22;51595;24.180;-110.296;2023-07-31T12:13:35;28.30;99.90
63875;DHT22;51595;24.180;-110.296;2023-07-31T12:16:04;28.30;99.90
63875;DHT22;51595;24.180;-110.296;2023-07-31T12:18:34;28.30;99.90
63875;DHT22;51595;24.180;-110.296;2023-07-31T12:21:06;28.30;99.90
63875;DHT22;51595;24.180;-110.296;2023-07-31T12:23:34;28.40;99.90
63875;DHT22;51595;24.180;-110.296;2023-07-31T12:28:30;28.40;99.90
63875;DHT22;51595;24.180;-110.296;2023-07-31T12:30:58;28.40;99.90
63875;DHT22;51595;24.180;-110.296;2023-07-31T12:33:31;28.40;99.90
63875;DHT22;51595;24.180;-110.296;2023-07-31T12:36:00;28.40;99.90
63875;DHT22;51595;24.180;-110.296;2023-07-31T12:38:27;28.40;99.90
63875;DHT22;51595;24.180;-110.296;2023-07-31T12:40:53;28.30;99.90
63875;DHT22;51595;24.180;-110.296;2023-07-31T12:43:19;28.40;99.90
63875;DHT22;51595;24.180;-110.296;2023-07-31T12:45:46;28.60;99.90
63875;DHT22;51595;24.180;-110.296;2023-07-31T12:48:14;28.60;99.90
63875;DHT22;51595;24.180;-110.296;2023-07-31T12:50:40;28.70;99.90
63875;DHT22;51595;24.180;-110.296;2023-07-31T12:53:10;28.70;99.90
63875;DHT22;51595;24.180;-110.296;2023-07-31T12:55:38;28.70;99.90
63875;DHT22;51595;24.180;-110.296;2023-07-31T12:58:05;28.70;99.90
63875;DHT22;51595;24.180;-110.296;2023-07-31T13:00:31;28.70;99.90
63875;DHT22;51595;24.180;-110.296;2023-07-31T13:02:58;28.80;99.90
63875;DHT22;51595;24.180;-110.296;2023-07-31T13:05:25;28.80;99.90
63875;DHT22;51595;24.180;-110.296;2023-07-31T13:07:51;28.70;99.90
63875;DHT22;51595;24.180;-110.296;2023-07-31T13:10:19;28.80;99.90
63875;DHT22;51595;24.180;-110.296;2023-07-31T13:12:46;28.80;99.90
63875;DHT22;51595;24.180;-110.296;2023-07-31T13:15:13;28.70;99.90
63875;DHT22;51595;24.180;-110.296;2023-07-31T13:17:41;28.70;99.90
63875;DHT22;51595;24.180;-110.296;2023-07-31T13:20:08;28.70;99.90
63875;DHT22;51595;24.180;-110.296;2023-07-31T13:22:36;28.90;99.90
63875;DHT22;51595;24.180;-110.296;2023-07-31T13:25:02;28.90;99.90
63875;DHT22;51595;24.180;-110.296;2023-07-31T13:27:29;29.10;99.90
63875;DHT22;51595;24.180;-110.296;2023-07-31T13:29:56;29.40;99.90
63875;DHT22;51595;24.180;-110.296;2023-07-31T13:32:22;29.70;99.90
63875;DHT22;51595;24.180;-110.296;2023-07-31T13:34:51;29.90;99.90
63875;DHT22;51595;24.180;-110.296;2023-07-31T13:37:19;30.00;99.90
63875;DHT22;51595;24.180;-110.296;2023-07-31T13:39:45;30.10;99.90
63875;DHT22;51595;24.180;-110.296;2023-07-31T13:42:12;30.40;99.90
63875;DHT22;51595;24.180;-110.296;2023-07-31T13:44:39;30.70;99.90
63875;DHT22;51595;24.180;-110.296;2023-07-31T13:47:06;30.90;99.90
63875;DHT22;51595;24.180;-110.296;2023-07-31T13:49:33;31.00;99.90
63875;DHT22;51595;24.180;-110.296;2023-07-31T13:52:00;31.20;99.90
63875;DHT22;51595;24.180;-110.296;2023-07-31T13:54:28;31.30;99.90
63875;DHT22;51595;24.180;-110.296;2023-07-31T13:56:57;31.50;99.90
63875;DHT22;51595;24.180;-110.296;2023-07-31T13:59:23;31.60;99.90
63875;DHT22;51595;24.180;-110.296;2023-07-31T14:01:50;31.60;99.90
63875;DHT22;51595;24.180;-110.296;2023-07-31T14:04:18;31.80;99.90
63875;DHT22;51595;24.180;-110.296;2023-07-31T14:06:46;32.00;99.90
63875;DHT22;51595;24.180;-110.296;2023-07-31T14:09:15;32.20;99.90
63875;DHT22;51595;24.180;-110.296;2023-07-31T14:11:43;32.30;99.90
63875;DHT22;51595;24.180;-110.296;2023-07-31T14:14:10;32.40;99.90
63875;DHT22;51595;24.180;-110.296;2023-07-31T14:16:37;32.50;99.90
63875;DHT22;51595;24.180;-110.296;2023-07-31T14:19:06;32.70;99.90
63875;DHT22;51595;24.180;-110.296;2023-07-31T14:21:37;32.70;99.90
63875;DHT22;51595;24.180;-110.296;2023-07-31T14:24:07;32.70;99.90
63875;DHT22;51595;24.180;-110.296;2023-07-31T14:26:35;32.80;99.90
63875;DHT22;51595;24.180;-110.296;2023-07-31T14:29:02;32.80;99.90
63875;DHT22;51595;24.180;-110.296;2023-07-31T14:31:30;32.80;99.90
63875;DHT22;51595;24.180;-110.296;2023-07-31T14:33:56;32.90;99.90
63875;DHT22;51595;24.180;-110.296;2023-07-31T14:36:24;33.00;99.90
63875;DHT22;51595;24.180;-110.296;2023-07-31T14:38:53;33.30;99.50
63875;DHT22;51595;24.180;-110.296;2023-07-31T14:41:20;33.40;98.90
63875;DHT22;51595;24.180;-110.296;2023-07-31T14:43:48;33.50;99.00
63875;DHT22;51595;24.180;-110.296;2023-07-31T14:46:16;33.80;97.40
63875;DHT22;51595;24.180;-110.296;2023-07-31T14:48:42;33.80;97.20
63875;DHT22;51595;24.180;-110.296;2023-07-31T14:51:10;33.90;96.60
63875;DHT22;51595;24.180;-110.296;2023-07-31T14:53:36;34.10;96.30
63875;DHT22;51595;24.180;-110.296;2023-07-31T14:56:03;34.30;96.40
63875;DHT22;51595;24.180;-110.296;2023-07-31T14:58:30;34.70;95.10
63875;DHT22;51595;24.180;-110.296;2023-07-31T15:00:56;34.80;95.10